LEBA Airport Information

Runway Information
Runway 03 Length 4527 ft width 148 ft
Elevation 293 ft Threshold 0 ft Heading 29
Runway 21 Length 4527 ft Width 148 ft
Elevation 297 ft Threshold 0 ft Heading 209
Airport Frequencies
Type CTAF Name CTAF Frequency 118.3 MHZ
Airport Navaids
Type VOR-DME Name Cordoba Frequency 112400 KHZ
Type NDB Name Cordoba Frequency 366 KHZ
Airport Weather Information & NOTAM
ADDS - METARS form results

(2151 UTC 30 March 2020)
Data provider http://aviationweather.gov/metar/data/
 
METAR text: LEBA 302130Z AUTO 07003KT 030V110 9999 -SHRA NSC 11/10 Q1008
Conditions at: LEBA (CORDOBA AIRPORT , ES) observed 2130 UTC 30 March 2020
Temperature: 11.0°C (52°F)
Dewpoint: 10.0°C (50°F) [RH = 94%]
Pressure (altimeter): 29.76 inches Hg (1008.0 mb)
Winds: from the ENE (70 degrees) at 3 MPH (3 knots; 1.5 m/s)
Visibility: 6 or more miles (10+ km)
Ceiling: at least 12,000 feet AGL
Clouds: sky clear below 12,000 feet AGL
Weather: -SHRA  (light rain showers)

METAR text: LEBA 302100Z AUTO 11004KT 070V150 9999 -RA NSC 11/10 Q1008
Conditions at: LEBA (CORDOBA AIRPORT , ES) observed 2100 UTC 30 March 2020
Temperature: 11.0°C (52°F)
Dewpoint: 10.0°C (50°F) [RH = 94%]
Pressure (altimeter): 29.76 inches Hg (1008.0 mb)
Winds: from the ESE (110 degrees) at 5 MPH (4 knots; 2.1 m/s)
Visibility: 6 or more miles (10+ km)
Ceiling: at least 12,000 feet AGL
Clouds: sky clear below 12,000 feet AGL
Weather: -RA  (light rain)

Forecast for: LEBA (CORDOBA AIRPORT , ES)
Text: TAF LEBA 301700Z 3018/3103 25008KT 9999 SCT025 SCT035
Forecast period: 1800 UTC 30 March 2020 to 0300 UTC 31 March 2020
Forecast type: FROM: standard forecast or significant change
Winds: from the WSW (250 degrees) at 9 MPH (8 knots; 4.1 m/s)
Visibility: 6 or more miles 10+ km)
Ceiling: at least 12,000 feet AGL
Clouds: scattered clouds at 2500 feet AGL
scattered clouds at 3500 feet AGL
Weather: no significant weather forecast for this period
Text: PROB40
Forecast period: 1800 UTC 30 March 2020 to 0300 UTC 31 March 2020
Forecast type: TEMPORARY: The following changes expected for less than half the time period
Visibility: 2.49 miles (4.01 km)
Ceiling: 3000 feet AGL
Clouds: scattered clouds at 2500 feet AGL
broken clouds at 3000 feet AGL
Weather: SHRA  (rain showers)